Time;durP1;ratioP1;P1;durP2;ratioP2;P2;SDS_P1;SDS_P2;PMS_P1;PMS_P2;Temp;Humidity;BMP_temperature;BMP_pressure;BME280_temperature;BME280_humidity;BME280_pressure;Samples;Min_cycle;Max_cycle;Signal;HPM_P1;HPM_P2
2021/03/26 05:38:49;;;;;;;;;;;;;;;1.38;67.15;100369.20;1665338;84;20283;-40
2021/03/26 05:41:46;;;;;;;;;;;;;;;1.49;67.50;100369.20;1695534;84;20195;-48
2021/03/26 05:44:28;;;;;;;;;;;;;;;1.59;67.39;100367.45;1676939;83;20160;-48
2021/03/26 05:47:02;;;;;;;;;;;;;;;1.67;67.21;100369.42;1715661;80;20534;-47
2021/03/26 05:49:58;;;;;;;;;;;;;;;1.75;66.73;100377.05;1737457;80;20177;-48
2021/03/26 05:52:59;;;;;;;;;;;;;;;1.82;66.89;100369.99;1714609;81;20165;-46
2021/03/26 05:55:34;;;;;;;;;;;;;;;1.94;65.84;100370.43;1719230;80;20454;-47
2021/03/26 05:58:14;;;;;;;;;;;;;;;2.06;65.61;100366.11;1740986;80;20212;-47
2021/03/26 06:01:06;;;;;;;;;;;;;;;2.16;64.96;100367.33;1684222;84;20471;-40
2021/03/26 06:03:52;;;;;;;;;;;;;;;2.30;64.89;100363.09;1802790;78;20650;-41
2021/03/26 06:07:02;;;;;;;;;;;;;;;2.33;65.31;100363.20;1776283;79;20194;-41
2021/03/26 06:10:05;;;;;;;;;;;;;;;2.46;65.32;100363.61;1775871;79;20190;-41
2021/03/26 06:12:57;;;;;;;;;;;;;;;2.58;65.08;100370.48;1773698;79;20631;-43
2021/03/26 06:16:18;;;;;;;;;;;;;;;2.72;64.95;100373.50;1775224;80;20192;-42
2021/03/26 06:19:27;;;;;;;;;;;;;;;2.86;64.88;100369.67;1780195;79;20182;-43
2021/03/26 06:22:24;;;;;;;;;;;;;;;3.04;64.32;100374.55;1672211;83;20276;-42
2021/03/26 06:25:49;;;;;;;;;;;;;;;3.15;63.29;100373.18;1672915;85;20556;-48
2021/03/26 06:28:36;;;;;;;;;;;;;;;3.28;63.56;100372.72;1673986;83;20177;-49
2021/03/26 06:31:43;;;;;;;;;;;;;;;3.44;62.96;100376.23;1675096;84;20490;-42
2021/03/26 06:34:58;;;;;;;;;;;;;;;3.64;63.07;100367.75;1796985;78;20285;-46
2021/03/26 06:38:07;;;;;;;;;;;;;;;3.71;62.34;100368.80;1761115;80;20214;-47
2021/03/26 06:41:05;;;;;;;;;;;;;;;3.84;62.50;100376.52;1739376;81;20200;-47
2021/03/26 06:44:19;;;;;;;;;;;;;;;3.97;61.15;100374.73;1742119;81;20216;-47
2021/03/26 06:47:18;;;;;;;;;;;;;;;4.13;61.71;100374.73;1737976;81;20270;-47
2021/03/26 06:50:31;;;;;;;;;;;;;;;4.30;60.34;100376.48;1741172;81;20157;-42
2021/03/26 06:53:51;;;;;;;;;;;;;;;4.45;59.33;100374.28;1740356;81;20167;-40
2021/03/26 06:56:34;;;;;;;;;;;;;;;4.66;58.29;100377.84;1740352;81;20494;-47
2021/03/26 06:59:25;;;;;;;;;;;;;;;4.79;56.52;100375.59;1742388;80;20175;-47
2021/03/26 07:02:08;;;;;;;;;;;;;;;4.92;56.82;100372.86;1710097;81;20181;-42
2021/03/26 07:05:11;;;;;;;;;;;;;;;5.07;56.73;100364.58;1740322;81;20169;-40
2021/03/26 07:08:00;;;;;;;;;;;;;;;5.21;54.89;100365.77;1740229;81;20200;-47
2021/03/26 07:10:43;;;;;;;;;;;;;;;5.39;54.00;100367.89;1739468;81;20165;-46
2021/03/26 07:13:26;;;;;;;;;;;;;;;5.54;54.03;100368.66;1743151;81;20171;-40
2021/03/26 07:17:00;;;;;;;;;;;;;;;5.67;52.70;100376.27;1738361;81;20539;-48
2021/03/26 07:20:25;;;;;;;;;;;;;;;5.83;53.77;100371.86;1739161;80;20757;-48
2021/03/26 07:24:11;;;;;;;;;;;;;;;6.01;51.57;100372.68;1740846;80;20193;-40
2021/03/26 07:27:53;;;;;;;;;;;;;;;6.13;49.98;100369.89;1710877;82;20266;-40
2021/03/26 07:31:13;;;;;;;;;;;;;;;6.21;50.03;100375.68;1693788;84;20166;-47
2021/03/26 07:37:48;;;;;;;;;;;;;;;6.44;45.09;100373.08;1574604;89;20221;-47
2021/03/26 07:40:52;;;;;;;;;;;;;;;6.57;45.67;100376.76;1575512;89;20514;-41
2021/03/26 07:43:49;;;;;;;;;;;;;;;6.72;46.04;100372.23;1572237;91;20853;-40
2021/03/26 07:46:51;;;;;;;;;;;;;;;6.82;42.69;100376.73;1572715;91;20282;-41
2021/03/26 07:49:45;;;;;;;;;;;;;;;6.82;42.76;100375.02;1576012;91;20175;-48
2021/03/26 07:52:39;;;;;;;;;;;;;;;6.88;41.80;100375.11;1789844;78;20270;-40
2021/03/26 07:55:23;;;;;;;;;;;;;;;6.85;41.04;100378.11;1742659;81;20197;-40
2021/03/26 07:57:54;;;;;;;;;;;;;;;6.86;41.39;100381.16;1747061;81;20203;-40
2021/03/26 08:00:26;;;;;;;;;;;;;;;6.90;41.27;100381.66;1745872;81;20567;-41
2021/03/26 08:03:13;;;;;;;;;;;;;;;6.98;41.30;100388.28;1745362;81;20335;-40
2021/03/26 08:05:47;;;;;;;;;;;;;;;7.04;40.78;100388.38;1740796;81;20485;-47
2021/03/26 08:08:28;;;;;;;;;;;;;;;7.10;42.10;100383.27;1740687;80;20185;-40
2021/03/26 08:11:29;;;;;;;;;;;;;;;7.19;41.33;100388.63;1740051;81;20169;-48
2021/03/26 08:14:23;;;;;;;;;;;;;;;7.25;42.80;100382.60;1735351;81;20275;-48
2021/03/26 08:17:00;;;;;;;;;;;;;;;7.39;42.42;100381.09;1737252;79;20250;-48
2021/03/26 08:19:37;;;;;;;;;;;;;;;7.45;40.96;100385.95;1743786;81;20201;-47
2021/03/26 08:22:34;;;;;;;;;;;;;;;7.49;42.92;100382.98;1742863;81;20201;-46
2021/03/26 08:25:22;;;;;;;;;;;;;;;7.58;41.13;100370.06;1743574;81;20190;-47
2021/03/26 08:28:09;;;;;;;;;;;;;;;7.69;40.96;100381.93;1745802;81;20173;-48
2021/03/26 08:31:03;;;;;;;;;;;;;;;7.80;40.98;100381.64;1746689;81;20173;-47
2021/03/26 08:33:44;;;;;;;;;;;;;;;7.92;39.77;100391.34;1738911;81;20173;-39
2021/03/26 08:36:16;;;;;;;;;;;;;;;7.98;39.87;100388.80;1744825;81;20158;-47
2021/03/26 08:39:17;;;;;;;;;;;;;;;8.03;41.32;100393.64;1748770;81;20161;-40
2021/03/26 08:41:46;;;;;;;;;;;;;;;8.13;41.58;100390.73;1707125;82;20196;-41
2021/03/26 08:44:16;;;;;;;;;;;;;;;8.21;40.25;100398.19;1700392;83;20171;-41
2021/03/26 08:46:50;;;;;;;;;;;;;;;8.23;41.21;100397.37;1683791;84;20178;-40
2021/03/26 08:49:28;;;;;;;;;;;;;;;8.29;41.29;100397.83;1673606;83;20647;-40
2021/03/26 08:52:14;;;;;;;;;;;;;;;8.37;40.74;100399.28;1684248;84;20551;-47
2021/03/26 08:55:19;;;;;;;;;;;;;;;8.39;41.33;100401.02;1679856;84;20194;-47
2021/03/26 08:58:08;;;;;;;;;;;;;;;8.45;41.67;100398.91;1689104;84;20271;-48
2021/03/26 09:00:44;;;;;;;;;;;;;;;8.47;40.65;100395.91;1690943;84;20157;-41
2021/03/26 09:03:36;;;;;;;;;;;;;;;8.45;40.38;100397.61;1672189;84;20813;-40
2021/03/26 09:06:21;;;;;;;;;;;;;;;8.45;41.52;100401.09;1676092;84;20244;-47
2021/03/26 09:08:55;;;;;;;;;;;;;;;8.56;41.37;100409.02;1684365;84;20624;-41
2021/03/26 09:11:40;;;;;;;;;;;;;;;8.69;40.88;100397.84;1679474;84;20202;-47
2021/03/26 09:14:18;;;;;;;;;;;;;;;8.85;39.97;100399.30;1677458;84;20583;-39
2021/03/26 09:17:01;;;;;;;;;;;;;;;8.99;40.28;100392.47;1687937;84;20226;-39
2021/03/26 09:19:33;;;;;;;;;;;;;;;9.04;38.67;100400.78;1695142;84;20579;-48
2021/03/26 09:22:33;;;;;;;;;;;;;;;9.06;38.98;100396.87;1687596;84;20165;-40
2021/03/26 09:25:16;;;;;;;;;;;;;;;9.14;38.95;100399.53;1689915;84;20373;-48
2021/03/26 09:27:48;;;;;;;;;;;;;;;9.22;38.81;100403.05;1684709;84;20174;-46
2021/03/26 09:30:36;;;;;;;;;;;;;;;9.32;39.35;100400.95;1677377;84;20268;-46
2021/03/26 09:33:13;;;;;;;;;;;;;;;9.43;39.22;100402.34;1686759;84;20178;-40
2021/03/26 09:35:48;;;;;;;;;;;;;;;9.53;37.89;100398.92;1688537;84;20265;-48
2021/03/26 09:38:45;;;;;;;;;;;;;;;9.62;38.09;100396.78;1679329;84;20194;-47
2021/03/26 09:41:32;;;;;;;;;;;;;;;9.70;38.01;100396.41;1682098;84;20194;-48
2021/03/26 09:44:07;;;;;;;;;;;;;;;9.73;36.85;100395.10;1683085;84;20613;-40
2021/03/26 09:46:47;;;;;;;;;;;;;;;9.67;37.17;100398.98;1687719;84;20558;-42
2021/03/26 09:49:32;;;;;;;;;;;;;;;9.69;37.32;100399.89;1691324;84;20678;-48
2021/03/26 09:52:12;;;;;;;;;;;;;;;9.74;36.84;100400.36;1671699;84;20557;-47
2021/03/26 09:54:41;;;;;;;;;;;;;;;9.76;37.73;100387.30;1669822;85;20186;-41
2021/03/26 09:57:25;;;;;;;;;;;;;;;9.84;36.87;100396.90;1731905;81;20288;-41
2021/03/26 10:00:17;;;;;;;;;;;;;;;9.84;37.43;100394.72;1731162;81;20245;-39
2021/03/26 10:03:13;;;;;;;;;;;;;;;9.92;37.51;100394.34;1654153;85;20566;-40
2021/03/26 10:06:04;;;;;;;;;;;;;;;10.05;37.32;100388.72;1602440;88;20174;-41
2021/03/26 10:11:34;;;;;;;;;;;;;;;10.26;37.44;100392.76;1665983;85;20278;-40
2021/03/26 10:14:11;;;;;;;;;;;;;;;10.34;36.89;100394.08;1664120;85;20333;-40
2021/03/26 10:16:47;;;;;;;;;;;;;;;10.43;37.16;100393.20;1664817;85;20165;-40
2021/03/26 10:19:16;;;;;;;;;;;;;;;10.50;36.11;100395.86;1627993;86;20167;-40
2021/03/26 10:21:48;;;;;;;;;;;;;;;10.52;35.43;100394.55;1661100;85;20576;-48
2021/03/26 10:24:31;;;;;;;;;;;;;;;10.62;35.58;100393.27;1804714;78;20455;-42
2021/03/26 10:27:06;;;;;;;;;;;;;;;10.77;37.49;100400.67;1776852;80;20567;-41
2021/03/26 10:29:50;;;;;;;;;;;;;;;11.10;35.98;100403.75;1774776;79;20521;-39
2021/03/26 10:32:26;;;;;;;;;;;;;;;11.43;35.07;100394.98;1776319;79;20158;-47
2021/03/26 10:34:58;;;;;;;;;;;;;;;11.66;33.97;100390.56;1778571;79;20178;-41
2021/03/26 10:37:38;;;;;;;;;;;;;;;11.86;32.90;100393.58;1779614;79;20180;-41
2021/03/26 10:40:09;;;;;;;;;;;;;;;12.09;31.59;100396.97;1777408;80;20226;-48
2021/03/26 10:43:14;;;;;;;;;;;;;;;12.48;32.88;100391.95;1777111;80;20155;-48
2021/03/26 10:46:09;;;;;;;;;;;;;;;13.11;31.75;100384.92;1778778;79;20537;-41
2021/03/26 10:48:59;;;;;;;;;;;;;;;13.71;31.66;100387.84;1774178;79;20246;-41
2021/03/26 10:51:39;;;;;;;;;;;;;;;14.02;29.33;100375.63;1772836;80;20166;-41
2021/03/26 10:54:22;;;;;;;;;;;;;;;14.13;29.52;100371.09;1776352;80;20667;-42
2021/03/26 10:57:02;;;;;;;;;;;;;;;14.53;29.75;100373.20;1777188;79;20551;-41
2021/03/26 10:59:49;;;;;;;;;;;;;;;14.98;28.50;100375.56;1775458;79;20300;-41
2021/03/26 11:02:30;;;;;;;;;;;;;;;15.33;28.22;100374.95;1775573;80;20196;-40
2021/03/26 11:05:24;;;;;;;;;;;;;;;15.72;27.46;100371.63;1781530;79;20305;-47
2021/03/26 11:08:02;;;;;;;;;;;;;;;16.14;27.67;100376.47;1778250;80;20214;-40
2021/03/26 11:10:38;;;;;;;;;;;;;;;16.60;26.72;100371.02;1777721;80;20194;-47
2021/03/26 11:13:32;;;;;;;;;;;;;;;17.08;25.51;100372.07;1778898;79;20217;-40
2021/03/26 11:16:14;;;;;;;;;;;;;;;17.26;26.19;100373.37;1775893;79;20143;-47
2021/03/26 11:18:49;;;;;;;;;;;;;;;17.35;25.36;100366.98;1771769;80;20173;-41
2021/03/26 11:21:18;;;;;;;;;;;;;;;17.34;24.54;100375.84;1662366;83;20312;-47
2021/03/26 11:24:01;;;;;;;;;;;;;;;17.33;25.58;100364.36;1646724;85;20230;-40
2021/03/26 11:26:31;;;;;;;;;;;;;;;17.38;25.28;100365.56;1643868;86;20179;-40
2021/03/26 11:29:06;;;;;;;;;;;;;;;17.19;24.25;100363.41;1646662;86;20203;-45
2021/03/26 11:31:52;;;;;;;;;;;;;;;16.98;25.84;100365.27;1649592;85;20238;-47
2021/03/26 11:34:46;;;;;;;;;;;;;;;17.05;25.04;100372.17;1648673;85;20210;-48
2021/03/26 11:37:22;;;;;;;;;;;;;;;16.74;24.45;100382.60;1641834;85;20229;-41
2021/03/26 11:40:07;;;;;;;;;;;;;;;16.18;25.94;100372.86;1648015;85;20300;-41
2021/03/26 11:42:55;;;;;;;;;;;;;;;15.83;25.76;100362.60;1614532;86;20536;-41
2021/03/26 11:45:27;;;;;;;;;;;;;;;15.66;26.08;100364.71;1598866;89;20309;-41
2021/03/26 11:48:16;;;;;;;;;;;;;;;15.60;26.58;100363.03;1789473;77;20287;-41
2021/03/26 11:50:52;;;;;;;;;;;;;;;15.34;27.53;100360.87;1753050;80;20290;-48
2021/03/26 11:53:36;;;;;;;;;;;;;;;15.24;27.62;100360.61;1752689;80;20178;-47
2021/03/26 11:56:22;;;;;;;;;;;;;;;15.24;26.40;100354.47;1750496;80;20219;-48
2021/03/26 11:59:12;;;;;;;;;;;;;;;14.95;26.81;100357.16;1743375;80;20183;-48
2021/03/26 12:02:05;;;;;;;;;;;;;;;14.72;28.27;100353.59;1758155;80;20561;-47
2021/03/26 12:04:39;;;;;;;;;;;;;;;14.66;28.96;100352.37;1745047;80;20207;-47
2021/03/26 12:07:15;;;;;;;;;;;;;;;14.69;28.62;100343.57;1745793;80;20292;-41
2021/03/26 12:09:57;;;;;;;;;;;;;;;14.78;29.57;100350.85;1747612;80;20223;-48
2021/03/26 12:12:33;;;;;;;;;;;;;;;14.84;29.23;100350.78;1752455;80;20483;-48
2021/03/26 12:15:11;;;;;;;;;;;;;;;14.86;29.24;100348.98;1764736;80;20172;-41
2021/03/26 12:17:44;;;;;;;;;;;;;;;14.90;29.53;100348.05;1741065;80;20214;-41
2021/03/26 12:20:27;;;;;;;;;;;;;;;14.83;29.52;100347.70;1758251;80;20216;-41
2021/03/26 12:23:00;;;;;;;;;;;;;;;14.90;29.28;100345.83;1745334;80;20208;-41
2021/03/26 12:25:47;;;;;;;;;;;;;;;15.05;29.41;100351.30;1745622;80;20652;-48
2021/03/26 12:28:25;;;;;;;;;;;;;;;15.09;29.87;100354.31;1748964;80;20172;-46
2021/03/26 12:30:59;;;;;;;;;;;;;;;14.92;29.57;100355.91;1775484;80;20191;-40
2021/03/26 12:33:46;;;;;;;;;;;;;;;14.80;30.09;100354.80;1752603;80;20473;-47
2021/03/26 12:36:26;;;;;;;;;;;;;;;14.89;30.68;100342.33;1773391;80;20170;-40
2021/03/26 12:38:58;;;;;;;;;;;;;;;15.05;29.83;100352.17;1764761;80;20206;-47
2021/03/26 12:41:43;;;;;;;;;;;;;;;14.92;30.30;100343.19;1761456;81;20270;-47
2021/03/26 12:44:20;;;;;;;;;;;;;;;14.68;29.91;100349.73;1740162;80;20179;-47
2021/03/26 12:47:08;;;;;;;;;;;;;;;14.42;31.47;100344.38;1761464;80;20485;-46
2021/03/26 12:49:45;;;;;;;;;;;;;;;14.41;31.66;100341.77;1765671;80;20189;-42
2021/03/26 12:52:28;;;;;;;;;;;;;;;14.60;31.81;100341.48;1761329;80;20182;-45
2021/03/26 12:55:11;;;;;;;;;;;;;;;14.79;32.07;100340.77;1752888;80;20166;-40
2021/03/26 12:58:03;;;;;;;;;;;;;;;14.96;31.30;100344.44;1760841;80;20162;-40
2021/03/26 13:00:57;;;;;;;;;;;;;;;14.75;32.05;100351.38;1768661;80;20200;-47
2021/03/26 13:03:35;;;;;;;;;;;;;;;14.26;30.99;100348.11;1737588;80;20204;-40
2021/03/26 13:06:14;;;;;;;;;;;;;;;13.82;31.97;100350.46;1749552;81;20165;-47
2021/03/26 13:08:45;;;;;;;;;;;;;;;13.78;32.45;100351.38;1752614;80;20730;-40
2021/03/26 13:11:16;;;;;;;;;;;;;;;13.90;31.78;100352.98;1747746;80;20192;-47
2021/03/26 13:13:58;;;;;;;;;;;;;;;14.08;31.86;100339.59;1758193;81;20192;-47
2021/03/26 13:16:33;;;;;;;;;;;;;;;14.20;31.26;100350.39;1748821;81;20202;-41
2021/03/26 13:19:02;;;;;;;;;;;;;;;14.36;31.21;100347.97;1740216;82;20160;-42
